Impacts METAR Board
IDs:

KORD - Chicago/O'Hare Intl, IL, US

Updated at: 0300 UTC 06 Dec 2019
Potential Impact None Slight Moderate High
Time 05/15Z 05/16Z 05/17Z 05/18Z 05/19Z 05/20Z 05/21Z 05/22Z 05/23Z 06/00Z 06/01Z 06/02Z 06/03Z
Temp32 37 39 42 44 44 45 44 43 43 43 43 43
Dewpt28 30 28 28 28 29 30 32 32 33 34 35 36
Altim30.04 30.05 30.04 30.00 29.98 29.96 29.94 29.94 29.95 29.94 29.94 29.93 29.92
VIS10 10 10 10 10 10 10 10 10 10 10 10 10
CIG-- -- -- -- 250 250 250 250 170 180 150 140 140
CoverFEWFEWSCTFEWBKNBKNBKNBKNBKNOVCOVCOVCOVC
FltCatVFRVFRVFRVFRVFRVFRVFRVFRVFRVFRVFRVFRVFR
WX--------------------------
WDir200190190180210190180190180170180190190
WSpd4 5 8 9 9 9 10 6 6 7 8 7 7
WGst-- -- -- -- -- -- -- -- -- -- -- -- --
Raw hourly METARs
KORD 051451Z 20004KT 10SM FEW170 00/M02 A3004 RMK AO2 SLP178 T00001022 53014
KORD 051551Z 19005KT 10SM FEW170 FEW250 03/M01 A3005 RMK AO2 SLP181 T00281011
KORD 051651Z 19008KT 10SM FEW120 SCT170 SCT250 04/M02 A3004 RMK AO2 SLP178 T00391022
KORD 051751Z 18009KT 10SM FEW120 FEW250 06/M02 A3000 RMK AO2 SLP166 T00561022 10056 21028 58011
KORD 051851Z 21009KT 10SM FEW120 SCT190 BKN250 07/M02 A2998 RMK AO2 SLP156 T00671022
KORD 051951Z 19009KT 10SM FEW190 BKN250 07/M02 A2996 RMK AO2 SLP149 T00671017
KORD 052051Z 18010KT 10SM FEW200 BKN250 07/M01 A2994 RMK AO2 SLP145 T00721011 56021
KORD 052151Z 19006KT 10SM FEW130 SCT170 BKN250 07/00 A2994 RMK AO2 SLP146 T00670000
KORD 052251Z 18006KT 10SM SCT140 BKN170 BKN250 06/00 A2995 RMK AO2 SLP148 T00610000
KORD 052351Z 17007KT 10SM FEW120 SCT150 OVC180 06/01 A2994 RMK AO2 SLP145 T00610006 10072 20056 58001
KORD 060051Z 18008KT 10SM SCT120 BKN150 OVC180 06/01 A2994 RMK AO2 SLP145 T00610011
KORD 060151Z 19007KT 10SM FEW120 BKN140 OVC170 06/02 A2993 RMK AO2 SLP141 T00610017
KORD 060251Z 19007KT 10SM FEW120 BKN140 OVC170 06/02 A2992 RMK AO2 SLP137 T00610022 58007



Page loaded:  03:47 UTC  |   07:47 PM Pacific  |   08:47 PM Mountain  |   09:47 PM Central  |   10:47 PM Eastern

 

ADVISORIES

FORECASTS

FORECASTS

OBSERVATIONS

USER TOOLS

ABOUT US